createdAt,value
2022-12-23T00:01:04.025Z,97209.94
2022-12-23T00:03:35.044Z,97213.38
2022-12-23T00:06:11.470Z,97202.34
2022-12-23T00:08:41.688Z,97204.06
2022-12-23T00:11:15.522Z,97199.13
2022-12-23T00:14:04.477Z,97190.50
2022-12-23T00:16:37.541Z,97191.56
2022-12-23T00:19:08.524Z,97176.31
2022-12-23T00:21:38.631Z,97170.50
2022-12-23T00:24:09.023Z,97153.44
2022-12-23T00:26:39.347Z,97171.59
2022-12-23T00:29:10.794Z,97161.53
2022-12-23T00:31:41.457Z,97162.53
2022-12-23T00:34:13.124Z,97159.38
2022-12-23T00:36:43.056Z,97177.53
2022-12-23T00:39:31.531Z,97171.81
2022-12-23T00:42:19.192Z,97172.31
2022-12-23T00:44:51.258Z,97172.28
2022-12-23T00:47:38.714Z,97158.78
2022-12-23T00:50:11.345Z,97166.13
2022-12-23T00:52:42.356Z,97162.91
2022-12-23T00:55:12.736Z,97167.81
2022-12-23T00:57:43.865Z,97161.28
2022-12-23T01:00:16.914Z,97175.84
2022-12-23T01:03:04.501Z,97163.31
2022-12-23T01:05:40.714Z,97180.56
2022-12-23T01:08:12.837Z,97170.69
2022-12-23T01:10:43.240Z,97169.09
2022-12-23T01:13:13.105Z,97182.59
2022-12-23T01:15:44.741Z,97165.88
2022-12-23T01:18:14.787Z,97157.47
2022-12-23T01:20:45.262Z,97149.78
2022-12-23T01:23:14.991Z,97148.94
2022-12-23T01:25:44.961Z,97151.34
2022-12-23T01:28:15.797Z,97149.53
2022-12-23T01:30:47.563Z,97142.63
2022-12-23T01:33:17.885Z,97149.16
2022-12-23T01:35:47.801Z,97146.13
2022-12-23T01:38:18.011Z,97139.63
2022-12-23T01:40:47.806Z,97130.38
2022-12-23T01:43:17.589Z,97124.84
2022-12-23T01:45:49.667Z,97132.88
2022-12-23T01:48:23.242Z,97130.41
2022-12-23T01:50:57.168Z,97124.84
2022-12-23T01:53:28.620Z,97118.75
2022-12-23T01:56:01.199Z,97116.25
2022-12-23T01:58:34.636Z,97120.84
2022-12-23T02:01:24.268Z,97126.34
2022-12-23T02:03:57.234Z,97112.50
2022-12-23T02:06:47.551Z,97115.03
2022-12-23T02:09:20.034Z,97111.72
2022-12-23T02:12:21.796Z,97113.94
2022-12-23T02:15:22.076Z,97111.00
2022-12-23T02:18:07.911Z,97113.28
2022-12-23T02:21:13.727Z,97097.34
2022-12-23T02:24:35.730Z,97094.25
2022-12-23T02:27:14.725Z,97093.13
2022-12-23T02:30:22.591Z,97090.47
2022-12-23T02:33:05.221Z,97086.38
2022-12-23T02:35:44.085Z,97079.00
2022-12-23T02:38:18.237Z,97080.25
2022-12-23T02:40:56.029Z,97082.34
2022-12-23T02:43:31.961Z,97083.56
2022-12-23T02:46:05.361Z,97074.81
2022-12-23T02:48:40.735Z,97067.56
2022-12-23T02:51:49.679Z,97069.13
2022-12-23T02:54:23.143Z,97064.59
2022-12-23T02:56:55.591Z,97060.13
2022-12-23T02:59:28.183Z,97056.91
2022-12-23T03:01:58.958Z,97062.91
2022-12-23T03:04:30.519Z,97059.69
2022-12-23T03:07:07.181Z,97085.03
2022-12-23T03:09:46.174Z,97071.97
2022-12-23T03:12:25.418Z,97078.94
2022-12-23T03:15:12.493Z,97063.91
2022-12-23T03:17:53.920Z,97061.13
2022-12-23T03:20:29.354Z,97051.22
2022-12-23T03:23:03.922Z,97043.06
2022-12-23T03:25:36.216Z,97027.06
2022-12-23T03:28:11.665Z,97030.13
2022-12-23T03:30:44.975Z,97026.84
2022-12-23T03:33:18.254Z,97010.88
2022-12-23T03:35:52.875Z,96997.09
2022-12-23T03:38:25.138Z,97030.78
2022-12-23T03:41:00.123Z,97051.28
2022-12-23T03:43:32.425Z,97037.72
2022-12-23T03:46:07.234Z,97035.06
2022-12-23T03:48:41.005Z,97030.38
2022-12-23T03:51:14.719Z,97037.44
2022-12-23T03:53:49.111Z,97040.59
2022-12-23T03:56:24.090Z,97039.09
2022-12-23T03:58:57.935Z,97034.69
2022-12-23T04:01:34.273Z,97037.50
2022-12-23T04:04:07.738Z,97029.84
2022-12-23T04:06:44.055Z,97022.75
2022-12-23T04:09:21.584Z,97006.72
2022-12-23T04:11:53.423Z,97005.03
2022-12-23T04:14:25.003Z,97005.66
2022-12-23T04:16:58.768Z,96999.59
2022-12-23T04:19:29.286Z,96973.00
2022-12-23T04:22:01.215Z,96951.78
2022-12-23T04:24:31.494Z,96941.47
2022-12-23T04:27:01.799Z,96962.00
2022-12-23T04:29:31.533Z,96963.34
2022-12-23T04:32:01.484Z,96967.88
2022-12-23T04:34:31.833Z,96989.66
2022-12-23T04:37:03.880Z,96941.28
2022-12-23T04:39:34.134Z,96995.47
2022-12-23T04:42:04.070Z,96990.91
2022-12-23T04:44:34.929Z,96973.38
2022-12-23T04:47:04.871Z,97008.00
2022-12-23T04:49:35.417Z,97061.97
2022-12-23T04:52:07.064Z,97028.06
2022-12-23T04:54:40.607Z,97013.75
2022-12-23T04:57:16.821Z,97015.72
2022-12-23T04:59:47.224Z,97009.03
2022-12-23T05:02:17.114Z,97028.84
2022-12-23T05:04:47.528Z,97024.50
2022-12-23T05:07:19.113Z,97050.25
2022-12-23T05:09:49.609Z,97035.03
2022-12-23T05:12:19.924Z,97047.72
2022-12-23T05:14:50.712Z,97046.06
2022-12-23T05:17:20.574Z,97032.72
2022-12-23T05:19:51.464Z,97029.06
2022-12-23T05:22:22.925Z,97014.41
2022-12-23T05:24:52.881Z,97005.34
2022-12-23T05:27:23.049Z,97012.13
2022-12-23T05:29:53.071Z,97011.06
2022-12-23T05:32:23.385Z,97016.59
2022-12-23T05:34:53.465Z,97001.75
2022-12-23T05:37:24.791Z,96999.81
2022-12-23T05:39:54.793Z,97013.06
2022-12-23T05:42:25.496Z,96996.78
2022-12-23T05:44:55.758Z,96999.81
2022-12-23T05:47:25.784Z,96999.69
2022-12-23T05:49:55.422Z,96998.34
2022-12-23T05:52:26.696Z,96995.66
2022-12-23T05:54:56.961Z,96994.41
2022-12-23T05:57:26.956Z,96992.28
2022-12-23T05:59:57.005Z,96989.56
2022-12-23T06:02:27.473Z,96992.25
2022-12-23T06:04:57.855Z,96976.94
2022-12-23T06:07:29.070Z,96974.06
2022-12-23T06:09:59.394Z,96978.56
2022-12-23T06:12:30.374Z,96978.91
2022-12-23T06:15:03.014Z,96980.75
2022-12-23T06:17:34.029Z,96983.69
2022-12-23T06:20:03.920Z,96986.97
2022-12-23T06:22:36.650Z,96988.19
2022-12-23T06:25:07.148Z,96987.84
2022-12-23T06:27:37.124Z,96981.53
2022-12-23T06:30:08.294Z,96991.78
2022-12-23T06:32:39.068Z,96999.13
2022-12-23T06:35:10.575Z,96995.28
2022-12-23T06:37:42.600Z,96996.53
2022-12-23T06:40:14.694Z,97004.72
2022-12-23T06:42:45.384Z,97019.72
2022-12-23T06:45:16.018Z,97015.16
2022-12-23T06:47:47.756Z,97012.09
2022-12-23T06:50:17.882Z,97005.00
2022-12-23T06:52:50.798Z,97009.88
2022-12-23T06:55:20.518Z,97012.94
2022-12-23T06:57:50.917Z,97016.88
2022-12-23T07:00:21.869Z,97037.72
2022-12-23T07:02:51.801Z,97047.13
2022-12-23T07:05:23.148Z,97047.66
2022-12-23T07:07:55.049Z,97035.75
2022-12-23T07:10:25.080Z,97028.72
2022-12-23T07:12:54.984Z,97038.19
2022-12-23T07:15:24.926Z,97033.59
2022-12-23T07:17:56.154Z,97022.94
2022-12-23T07:20:26.277Z,97019.16
2022-12-23T07:22:58.860Z,97024.59
2022-12-23T07:25:28.698Z,97023.44
2022-12-23T07:27:59.015Z,97020.50
2022-12-23T07:30:29.342Z,97013.69
2022-12-23T07:32:58.630Z,97017.22
2022-12-23T07:35:28.612Z,97019.06
2022-12-23T07:37:59.757Z,97020.53
2022-12-23T07:40:30.035Z,97025.03
2022-12-23T07:43:01.006Z,97010.34
2022-12-23T07:45:31.261Z,97024.38
2022-12-23T07:48:04.271Z,97035.81
2022-12-23T07:50:34.137Z,97033.59
2022-12-23T07:53:05.149Z,97043.50
2022-12-23T07:55:35.096Z,97030.88
2022-12-23T07:58:05.741Z,97032.81
2022-12-23T08:00:35.638Z,97022.16
2022-12-23T08:03:06.189Z,97024.19
2022-12-23T08:05:35.984Z,97021.44
2022-12-23T08:08:07.528Z,97020.69
2022-12-23T08:10:40.297Z,97027.97
2022-12-23T08:13:14.602Z,97030.69
2022-12-23T08:15:44.693Z,97021.28
2022-12-23T08:18:15.242Z,97022.63
2022-12-23T08:20:44.996Z,97006.72
2022-12-23T08:23:20.009Z,97014.31
2022-12-23T08:26:01.763Z,97009.41
2022-12-23T08:28:32.615Z,97018.59
2022-12-23T08:31:11.322Z,97025.44
2022-12-23T08:33:45.135Z,97037.75
2022-12-23T08:36:22.810Z,97045.53
2022-12-23T08:38:56.899Z,97051.59
2022-12-23T08:41:29.070Z,97049.31
2022-12-23T08:43:59.033Z,97057.72
2022-12-23T08:46:29.771Z,97060.41
2022-12-23T08:48:59.937Z,97056.97
2022-12-23T08:51:30.723Z,97060.06
2022-12-23T08:54:02.879Z,97063.56
2022-12-23T08:56:36.393Z,97050.94
2022-12-23T08:59:07.294Z,97035.97
2022-12-23T09:01:37.645Z,97030.84
2022-12-23T09:04:08.481Z,97024.16
2022-12-23T09:06:41.835Z,97026.09
2022-12-23T09:09:15.528Z,97020.72
2022-12-23T09:11:45.315Z,97020.34
2022-12-23T09:14:15.600Z,97019.97
2022-12-23T09:16:45.628Z,97019.97
2022-12-23T09:19:15.524Z,97025.72
2022-12-23T09:21:45.460Z,97012.69
2022-12-23T09:24:17.620Z,97018.81
2022-12-23T09:26:47.742Z,97013.44
2022-12-23T09:29:17.983Z,97005.75
2022-12-23T09:31:48.202Z,97011.16
2022-12-23T09:34:17.782Z,97005.38
2022-12-23T09:36:53.393Z,97011.16
2022-12-23T09:39:28.232Z,97008.50
2022-12-23T09:42:05.284Z,96994.28
2022-12-23T09:44:45.152Z,96984.28
2022-12-23T09:47:19.546Z,96998.09
2022-12-23T09:49:52.813Z,96987.38
2022-12-23T09:52:27.094Z,96988.94
2022-12-23T09:54:58.447Z,96992.72
2022-12-23T09:57:35.873Z,96974.34
2022-12-23T10:00:13.115Z,96958.56
2022-12-23T10:02:51.998Z,96983.53
2022-12-23T10:05:32.718Z,96986.59
2022-12-23T10:08:06.089Z,96993.88
2022-12-23T10:10:40.592Z,96986.94
2022-12-23T10:13:18.239Z,96984.25
2022-12-23T10:15:50.548Z,96981.91
2022-12-23T10:18:25.216Z,96999.56
2022-12-23T10:20:58.771Z,96999.63
2022-12-23T10:23:32.233Z,97001.09
2022-12-23T10:26:06.289Z,97001.06
2022-12-23T10:28:36.155Z,97003.78
2022-12-23T10:34:02.802Z,97000.25
2022-12-23T10:36:42.276Z,97012.94
2022-12-23T10:39:19.361Z,97013.19
2022-12-23T10:42:01.320Z,97010.31
2022-12-23T10:44:56.228Z,97012.31
2022-12-23T10:47:33.206Z,97003.50
2022-12-23T10:50:15.598Z,97004.59
2022-12-23T10:52:46.925Z,96994.19
2022-12-23T10:55:28.548Z,96992.31
2022-12-23T10:58:09.176Z,96981.88
2022-12-23T11:00:41.737Z,96991.59
2022-12-23T11:03:18.972Z,96989.19
2022-12-23T11:05:50.876Z,96976.78
2022-12-23T11:08:22.091Z,96972.13
2022-12-23T11:10:52.362Z,96965.47
2022-12-23T11:13:37.330Z,96961.88
2022-12-23T11:16:23.536Z,96963.09
2022-12-23T11:19:06.230Z,96964.50
2022-12-23T11:21:36.669Z,96961.16
2022-12-23T11:24:19.425Z,96963.44
2022-12-23T11:26:53.071Z,96956.84
2022-12-23T11:29:26.842Z,96965.88
2022-12-23T11:31:57.391Z,96967.47
2022-12-23T11:34:28.565Z,96973.66
2022-12-23T11:37:03.585Z,96960.97
2022-12-23T11:39:37.913Z,96964.00
2022-12-23T11:42:13.356Z,96939.22
2022-12-23T11:44:47.776Z,96944.84
2022-12-23T11:47:29.374Z,96947.19
2022-12-23T11:50:05.836Z,96969.44
2022-12-23T11:52:37.280Z,96964.19
2022-12-23T11:55:09.279Z,96960.03
2022-12-23T11:57:42.647Z,96942.16
2022-12-23T12:00:22.578Z,96948.56
2022-12-23T12:02:55.287Z,96951.19
2022-12-23T12:05:35.705Z,96948.59
2022-12-23T12:08:08.964Z,96952.22
2022-12-23T12:10:41.914Z,96944.97
2022-12-23T12:13:25.998Z,96940.13
2022-12-23T12:16:10.424Z,96945.22
2022-12-23T12:18:42.051Z,96940.25
2022-12-23T12:21:16.239Z,96922.16
2022-12-23T12:23:48.923Z,96932.84
2022-12-23T12:26:25.661Z,96934.97
2022-12-23T12:29:00.734Z,96927.91
2022-12-23T12:31:35.750Z,96925.34
2022-12-23T12:34:08.629Z,96917.34
2022-12-23T12:36:43.542Z,96916.31
2022-12-23T12:39:20.030Z,96923.91
2022-12-23T12:41:53.519Z,96910.19
2022-12-23T12:44:30.303Z,96914.88
2022-12-23T12:47:28.132Z,96919.41
2022-12-23T12:50:02.395Z,96922.53
2022-12-23T12:52:35.585Z,96924.09
2022-12-23T12:55:09.009Z,96922.03
2022-12-23T12:57:39.533Z,96917.00
2022-12-23T13:00:17.193Z,96922.84
2022-12-23T13:03:08.120Z,96925.91
2022-12-23T13:05:54.949Z,96928.22
2022-12-23T13:08:55.810Z,96929.44
2022-12-23T13:11:31.894Z,96916.94
2022-12-23T13:14:07.629Z,96916.41
2022-12-23T13:16:45.814Z,96919.47
2022-12-23T13:19:25.821Z,96917.50
2022-12-23T13:22:02.338Z,96915.81
2022-12-23T13:24:37.822Z,96911.84
2022-12-23T13:27:13.013Z,96918.34
2022-12-23T13:30:02.862Z,96902.19
2022-12-23T13:33:14.953Z,96907.03
2022-12-23T13:36:02.959Z,96901.72
2022-12-23T13:38:52.351Z,96910.94
2022-12-23T13:41:28.882Z,96912.28
2022-12-23T13:44:01.198Z,96919.22
2022-12-23T13:46:47.770Z,96919.72
2022-12-23T13:49:27.130Z,96915.13
2022-12-23T13:52:06.275Z,96904.69
2022-12-23T13:54:45.528Z,96912.03
2022-12-23T13:57:26.578Z,96900.81
2022-12-23T14:00:05.950Z,96907.47
2022-12-23T14:02:54.349Z,96906.06
2022-12-23T14:05:36.628Z,96911.34
2022-12-23T14:08:21.782Z,96923.22
2022-12-23T14:10:55.583Z,96921.16
2022-12-23T14:13:28.853Z,96938.44
2022-12-23T14:16:15.638Z,96930.97
2022-12-23T14:19:08.513Z,96937.34
2022-12-23T14:21:49.141Z,96950.81
2022-12-23T14:24:46.575Z,96949.50
2022-12-23T14:27:32.961Z,96941.19
2022-12-23T14:30:12.330Z,96932.66
2022-12-23T14:32:49.623Z,96935.84
2022-12-23T14:35:25.005Z,96931.94
2022-12-23T14:38:12.991Z,96922.72
2022-12-23T14:41:13.776Z,96926.63
2022-12-23T14:44:00.078Z,96913.94
2022-12-23T14:46:59.897Z,96909.84
2022-12-23T14:49:44.842Z,96922.25
2022-12-23T14:52:53.019Z,96919.34
2022-12-23T14:55:45.272Z,96926.84
2022-12-23T14:58:54.138Z,96930.09
2022-12-23T15:01:30.693Z,96931.88
2022-12-23T15:04:02.112Z,96924.22
2022-12-23T15:06:36.784Z,96919.06
2022-12-23T15:09:08.699Z,96919.97
2022-12-23T15:11:39.028Z,96916.47
2022-12-23T15:14:12.763Z,96907.75
2022-12-23T15:16:46.981Z,96906.63
2022-12-23T15:19:22.350Z,96908.59
2022-12-23T15:22:03.212Z,96903.06
2022-12-23T15:24:37.875Z,96897.38
2022-12-23T15:27:26.654Z,96900.94
2022-12-23T15:29:58.485Z,96903.56
2022-12-23T15:32:30.393Z,96906.28
2022-12-23T15:35:05.232Z,96912.59
2022-12-23T15:37:36.428Z,96904.44
2022-12-23T15:40:13.194Z,96911.53
2022-12-23T15:42:50.460Z,96913.38
2022-12-23T15:45:44.273Z,96922.78
2022-12-23T15:48:27.663Z,96928.94
2022-12-23T15:50:59.439Z,96937.34
2022-12-23T15:53:32.608Z,96935.13
2022-12-23T15:56:06.389Z,96945.50
2022-12-23T15:58:37.999Z,96942.84
2022-12-23T16:01:08.628Z,96946.09
2022-12-23T16:03:42.082Z,96945.25
2022-12-23T16:06:19.827Z,96947.88
2022-12-23T16:08:58.630Z,96944.13
2022-12-23T16:11:44.191Z,96956.75
2022-12-23T16:14:33.575Z,96956.31
2022-12-23T16:17:03.772Z,96955.19
2022-12-23T16:19:42.994Z,96955.97
2022-12-23T16:22:28.336Z,96960.94
2022-12-23T16:25:08.351Z,96953.72
2022-12-23T16:27:41.144Z,96943.69
2022-12-23T16:30:16.607Z,96937.94
2022-12-23T16:32:52.817Z,96933.81
2022-12-23T16:35:33.817Z,96932.50
2022-12-23T16:38:18.625Z,96946.25
2022-12-23T16:40:51.182Z,96952.69
2022-12-23T16:43:22.508Z,96948.03
2022-12-23T16:45:54.673Z,96946.63
2022-12-23T16:48:30.341Z,96950.09
2022-12-23T16:51:02.924Z,96944.28
2022-12-23T16:53:33.035Z,96943.63
2022-12-23T16:56:03.114Z,96958.97
2022-12-23T16:58:33.053Z,96953.63
2022-12-23T17:01:03.924Z,96957.75
2022-12-23T17:03:34.644Z,96953.44
2022-12-23T17:06:06.376Z,96956.53
2022-12-23T17:08:36.051Z,96952.72
2022-12-23T17:11:06.486Z,96952.38
2022-12-23T17:13:36.674Z,96952.31
2022-12-23T17:16:07.749Z,96938.84
2022-12-23T17:18:37.859Z,96945.41
2022-12-23T17:21:12.588Z,96955.13
2022-12-23T17:23:43.479Z,96963.56
2022-12-23T17:26:14.560Z,96960.47
2022-12-23T17:28:45.107Z,96964.75
2022-12-23T17:31:19.389Z,96959.53
2022-12-23T17:33:53.983Z,96961.66
2022-12-23T17:36:26.181Z,96965.88
2022-12-23T17:38:56.476Z,96971.69
2022-12-23T17:41:31.748Z,96954.03
2022-12-23T17:44:03.218Z,96945.97
2022-12-23T17:46:34.010Z,96962.84
2022-12-23T17:49:03.940Z,96961.41
2022-12-23T17:51:36.220Z,96949.38
2022-12-23T17:54:08.344Z,96945.19
2022-12-23T17:56:38.588Z,96945.09
2022-12-23T17:59:08.683Z,96957.06
2022-12-23T18:01:39.590Z,96949.84
2022-12-23T18:04:10.171Z,96962.97
2022-12-23T18:06:42.693Z,96958.41
2022-12-23T18:09:12.662Z,96950.91
2022-12-23T18:11:44.936Z,96934.28
2022-12-23T18:14:18.603Z,96930.53
2022-12-23T18:16:48.450Z,96950.31
2022-12-23T18:19:20.358Z,96952.00
2022-12-23T18:21:52.315Z,96970.56
2022-12-23T18:24:23.882Z,96952.84
2022-12-23T18:26:54.606Z,96930.88
2022-12-23T18:29:24.573Z,96931.63
2022-12-23T18:31:54.862Z,96930.59
2022-12-23T18:34:25.390Z,96907.47
2022-12-23T18:36:56.416Z,96927.34
2022-12-23T18:39:26.234Z,96949.38
2022-12-23T18:41:56.697Z,96933.44
2022-12-23T18:44:27.426Z,96937.31
2022-12-23T18:46:57.727Z,96928.81
2022-12-23T18:49:27.580Z,96932.53
2022-12-23T18:51:59.466Z,96950.25
2022-12-23T18:54:29.489Z,96948.03
2022-12-23T18:57:02.641Z,96954.19
2022-12-23T18:59:35.090Z,96962.00
2022-12-23T19:02:06.733Z,96954.97
2022-12-23T19:04:37.286Z,96961.50
2022-12-23T19:07:10.872Z,96954.16
2022-12-23T19:09:41.789Z,96962.66
2022-12-23T19:12:12.188Z,96970.38
2022-12-23T19:14:42.958Z,96962.34
2022-12-23T19:17:13.007Z,96956.47
2022-12-23T19:19:43.196Z,96955.34
2022-12-23T19:22:19.451Z,96953.44
2022-12-23T19:25:04.708Z,96952.84
2022-12-23T19:27:35.989Z,96948.16
2022-12-23T19:30:07.596Z,96941.16
2022-12-23T19:32:37.268Z,96936.97
2022-12-23T19:35:08.847Z,96937.34
2022-12-23T19:37:40.149Z,96925.13
2022-12-23T19:40:11.840Z,96923.56
2022-12-23T19:42:43.144Z,96921.94
2022-12-23T19:45:13.341Z,96912.72
2022-12-23T19:47:43.386Z,96906.06
2022-12-23T19:50:14.305Z,96907.72
2022-12-23T19:52:46.439Z,96894.50
2022-12-23T19:55:16.648Z,96896.91
2022-12-23T19:57:46.544Z,96886.75
2022-12-23T20:00:17.263Z,96889.09
2022-12-23T20:02:51.422Z,96885.22
2022-12-23T20:05:25.818Z,96885.91
2022-12-23T20:07:57.979Z,96882.22
2022-12-23T20:10:27.964Z,96877.63
2022-12-23T20:12:58.615Z,96884.91
2022-12-23T20:15:29.089Z,96873.38
2022-12-23T20:18:00.311Z,96873.16
2022-12-23T20:20:30.529Z,96872.13
2022-12-23T20:23:02.716Z,96889.94
2022-12-23T20:25:32.917Z,96913.84
2022-12-23T20:28:02.584Z,96922.78
2022-12-23T20:30:32.554Z,96933.13
2022-12-23T20:33:02.810Z,96945.41
2022-12-23T20:35:33.806Z,96945.00
2022-12-23T20:38:05.869Z,96939.28
2022-12-23T20:40:35.953Z,96943.84
2022-12-23T20:43:09.137Z,96924.66
2022-12-23T20:45:44.401Z,96922.31
2022-12-23T20:48:14.764Z,96905.97
2022-12-23T20:50:45.787Z,96906.00
2022-12-23T20:53:17.694Z,96909.81
2022-12-23T20:55:48.214Z,96901.31
2022-12-23T20:58:35.646Z,96922.38
2022-12-23T21:01:12.908Z,96932.72
2022-12-23T21:03:43.525Z,96933.69
2022-12-23T21:06:13.859Z,96930.56
2022-12-23T21:08:45.712Z,96939.25
2022-12-23T21:11:16.132Z,96933.44
2022-12-23T21:13:48.376Z,96940.91
2022-12-23T21:16:18.764Z,96938.03
2022-12-23T21:18:53.289Z,96933.81
2022-12-23T21:21:26.910Z,96908.78
2022-12-23T21:24:02.408Z,96890.00
2022-12-23T21:26:34.207Z,96891.97
2022-12-23T21:29:06.531Z,96891.31
2022-12-23T21:31:38.277Z,96884.50
2022-12-23T21:34:09.998Z,96890.13
2022-12-23T21:36:42.265Z,96880.00
2022-12-23T21:39:16.823Z,96887.38
2022-12-23T21:41:46.486Z,96867.75
2022-12-23T21:44:16.614Z,96847.72
2022-12-23T21:46:46.648Z,96868.53
2022-12-23T21:49:17.072Z,96859.25
2022-12-23T21:51:47.194Z,96836.94
2022-12-23T21:54:19.367Z,96853.94
2022-12-23T21:56:49.847Z,96846.97
2022-12-23T21:59:19.916Z,96857.53
2022-12-23T22:01:51.058Z,96868.59
2022-12-23T22:04:21.474Z,96882.50
2022-12-23T22:06:51.790Z,96880.66
2022-12-23T22:09:22.924Z,96882.88
2022-12-23T22:11:52.389Z,96892.44
2022-12-23T22:14:22.659Z,96895.81
2022-12-23T22:16:52.750Z,96903.16
2022-12-23T22:19:22.822Z,96904.81
2022-12-23T22:21:53.548Z,96926.22
2022-12-23T22:24:25.344Z,96931.69
2022-12-23T22:26:55.642Z,96934.41
2022-12-23T22:29:25.818Z,96933.66
2022-12-23T22:31:56.031Z,96920.22
2022-12-23T22:34:26.268Z,96914.81
2022-12-23T22:36:56.373Z,96924.72
2022-12-23T22:39:27.969Z,96908.75
2022-12-23T22:41:58.508Z,96907.97
2022-12-23T22:44:28.596Z,96903.38
2022-12-23T22:46:58.805Z,96906.06
2022-12-23T22:49:29.637Z,96903.25
2022-12-23T22:52:00.121Z,96912.13
2022-12-23T22:54:32.997Z,96900.94
2022-12-23T22:57:03.529Z,96900.25
2022-12-23T22:59:33.942Z,96877.25
2022-12-23T23:02:03.679Z,96898.44
2022-12-23T23:04:36.116Z,96887.91
2022-12-23T23:07:08.326Z,96864.88
2022-12-23T23:09:40.574Z,96871.06
2022-12-23T23:12:10.768Z,96841.78
2022-12-23T23:14:53.986Z,96846.81
2022-12-23T23:17:26.395Z,96861.19
2022-12-23T23:19:57.320Z,96865.78
2022-12-23T23:22:27.308Z,96876.03
2022-12-23T23:24:58.819Z,96870.28
2022-12-23T23:27:28.507Z,96874.94
2022-12-23T23:29:58.432Z,96871.84
2022-12-23T23:32:28.458Z,96866.53
2022-12-23T23:34:58.769Z,96864.97
2022-12-23T23:37:28.829Z,96867.22
2022-12-23T23:40:00.261Z,96858.03
2022-12-23T23:42:30.394Z,96880.59
2022-12-23T23:45:00.455Z,96860.44
2022-12-23T23:47:34.952Z,96868.91
2022-12-23T23:50:05.718Z,96875.03
2022-12-23T23:52:36.378Z,96871.16
2022-12-23T23:55:09.869Z,96868.16
2022-12-23T23:57:39.848Z,96854.38
